Latest Weather Observations for Williamson

IDQ60801

Issued at 9:02 pm EST Saturday 20 December 2014 (issued every 30 minutes, with the page automatically refreshed every 10 minutes)

About weather observations | Map of weather stations | Latest weather observations for QLD | Other Formats
Station Details ID: 033195 Name: WILLIAMSON Lat: -22.47 Lon: 150.18 Height: 27.6 m
Data from the previous 72 hours. | See also: Recent months at Williamson
Date/Time
EST
Temp
°C
App
Temp
°C
Dew
Point
Rel
Hum
%
Delta-T
°C
Wind Press
QNH
hPa
Press
MSL
hPa
Rain
since 9 am
mm
Dir
 
Spd
km/h
Gust
km/h
Spd
kts
Gust
kts
20/09:00pm 24.8 26.5 20.9 79 2.6 E 13 19 7 10 1013.8 1013.6 0.0
20/08:30pm 25.0 26.9 20.5 76 2.9 ENE 11 15 6 8 1013.5 1013.3 0.0
20/08:00pm 25.3 26.5 19.9 72 3.5 E 13 20 7 11 1013.0 1012.8 0.0
20/07:30pm 25.6 26.6 19.5 69 3.9 E 13 19 7 10 1012.8 1012.6 0.0
20/07:00pm 26.2 26.6 19.1 65 4.6 ENE 15 22 8 12 1012.4 1012.2 0.0
20/06:30pm 27.0 27.6 19.4 63 4.9 ENE 15 26 8 14 1011.8 1011.6 0.0
20/06:00pm 27.6 28.4 19.9 63 5.0 E 15 26 8 14 1011.6 1011.4 0.0
20/05:30pm 28.8 30.0 20.0 59 5.8 E 13 24 7 13 1011.4 1011.2 0.0
20/05:00pm 29.1 29.8 20.5 59 5.7 ENE 17 24 9 13 1010.9 1010.7 0.0
20/04:30pm 30.3 30.6 20.5 55 6.5 ENE 19 30 10 16 1010.5 1010.3 0.0
20/04:00pm 30.3 30.2 19.6 52 7.0 ENE 19 28 10 15 1010.5 1010.3 0.0
20/03:30pm 30.8 30.9 19.2 50 7.6 ENE 17 30 9 16 1010.6 1010.4 0.0
20/03:00pm 31.1 30.7 18.8 48 8.0 ENE 19 30 10 16 1010.8 1010.6 0.0
20/02:30pm 31.6 31.5 17.9 44 8.8 ENE 15 28 8 15 1011.0 1010.8 0.0
20/02:00pm 31.7 30.9 17.2 42 9.2 ENE 17 28 9 15 1011.4 1011.2 0.0
20/01:30pm 32.1 30.9 16.0 38 10.1 ENE 17 28 9 15 1011.7 1011.5 0.0
20/01:00pm 32.7 30.6 14.8 34 11.0 ENE 19 28 10 15 1011.7 1011.5 0.0
20/12:30pm 32.1 29.9 14.3 34 10.9 ENE 19 32 10 17 1012.2 1012.0 0.0
20/12:00pm 32.6 30.1 14.2 32 11.2 ENE 20 32 11 17 1012.4 1012.2 0.0
20/11:30am 32.1 29.1 11.8 29 11.9 ENE 19 33 10 18 1012.8 1012.6 0.0
20/11:00am 32.3 32.2 17.0 40 9.7 E 13 22 7 12 1013.1 1012.9 0.0
20/10:30am 32.0 31.3 14.2 34 10.8 E 11 17 6 9 1013.3 1013.1 0.0
20/10:00am 31.2 30.8 15.2 38 9.9 E 11 19 6 10 1013.2 1013.0 0.0
20/09:30am 29.6 32.5 20.7 58 5.9 NNW 6 13 3 7 1013.3 1013.1 0.0
20/09:00am 28.8 32.4 21.3 64 5.0 SE 4 9 2 5 1013.3 1013.1 1.6
20/08:30am 27.8 31.2 21.6 69 4.1 S 6 11 3 6 1013.2 1013.0 1.6
20/08:00am 26.5 30.7 21.7 75 3.2 SSW 2 6 1 3 1013.2 1013.0 1.6
20/07:30am 25.6 29.9 22.7 84 2.0 S 4 9 2 5 1013.2 1013.0 1.6
20/07:00am 24.5 28.3 22.4 88 1.4 S 6 9 3 5 1012.9 1012.7 1.6
20/06:30am 22.5 26.8 21.1 92 0.9 CALM 0 0 0 0 1012.7 1012.5 1.6
20/06:00am 21.0 25.0 20.5 97 0.3 CALM 0 0 0 0 1012.4 1012.2 1.6
20/05:30am 20.2 23.9 19.9 98 0.2 CALM 0 0 0 0 1011.8 1011.6 1.6
20/05:00am 20.3 24.0 20.0 98 0.2 CALM 0 0 0 0 1011.5 1011.3 1.6
20/04:30am 20.6 24.5 20.3 98 0.2 CALM 0 0 0 0 1011.3 1011.1 1.6
20/04:00am 20.7 24.6 20.4 98 0.2 CALM 0 0 0 0 1011.2 1011.0 1.6
20/03:30am 21.0 25.1 20.7 98 0.2 CALM 0 0 0 0 1011.1 1010.9 1.6
20/03:00am 21.3 25.5 21.0 98 0.2 CALM 0 0 0 0 1011.3 1011.1 1.6
20/02:30am 21.5 25.8 21.2 98 0.2 CALM 0 0 0 0 1011.5 1011.3 1.6
20/02:00am 21.8 26.3 21.5 98 0.2 CALM 0 0 0 0 1011.5 1011.3 1.6
20/01:30am 22.2 26.9 21.9 98 0.2 CALM 0 0 0 0 1011.6 1011.4 1.6
20/01:00am 22.6 27.4 22.1 97 0.3 CALM 0 0 0 0 1012.0 1011.8 1.6
20/12:30am 22.8 27.7 22.3 97 0.3 CALM 0 0 0 0 1012.1 1011.9 1.6
20/12:00am 22.9 27.7 22.2 96 0.5 CALM 0 0 0 0 1012.5 1012.3 1.6
 
Date/Time
EST
Temp
°C
App
Temp
°C
Dew
Point
Rel
Hum
%
Delta-T
°C
Wind Press
QNH
hPa
Press
MSL
hPa
Rain
since 9 am
mm
Dir
 
Spd
km/h
Gust
km/h
Spd
kts
Gust
kts
19/11:30pm 23.4 27.6 22.4 94 0.7 SSE 4 7 2 4 1012.8 1012.6 1.6
19/11:00pm 23.7 28.3 22.5 93 0.8 ESE 2 7 1 4 1013.0 1012.8 1.6
19/10:30pm 23.8 28.4 22.4 92 0.9 NE 2 6 1 3 1013.2 1013.0 1.6
19/10:00pm 24.1 28.3 22.5 91 1.1 NNE 4 7 2 4 1013.4 1013.2 1.6
19/09:30pm 24.4 29.3 22.3 88 1.4 CALM 0 0 0 0 1013.4 1013.2 1.6
19/09:00pm 24.7 28.3 22.0 85 1.8 ENE 6 7 3 4 1013.2 1013.0 1.6
19/08:30pm 25.0 28.5 22.1 84 1.9 NE 7 11 4 6 1012.9 1012.7 1.6
19/08:00pm 25.1 27.8 22.2 84 1.9 ENE 11 17 6 9 1012.4 1012.2 1.6
19/07:30pm 25.1 28.2 22.8 87 1.6 ENE 11 19 6 10 1012.2 1012.0 1.6
19/07:00pm 25.3 28.6 22.6 85 1.8 ENE 9 19 5 10 1012.0 1011.8 1.6
19/06:30pm 25.9 29.2 22.6 82 2.2 NE 9 15 5 8 1011.6 1011.4 1.6
19/06:00pm 26.2 30.1 22.9 82 2.2 ENE 7 9 4 5 1011.1 1010.9 1.6
19/05:30pm 26.4 29.9 22.9 81 2.4 ENE 9 13 5 7 1010.8 1010.6 1.6
19/05:00pm 27.4 30.2 23.0 77 3.0 E 13 24 7 13 1010.4 1010.2 1.6
19/04:30pm 29.1 32.8 23.3 71 4.0 S 9 11 5 6 1010.1 1009.9 1.6
19/04:00pm 28.0 30.3 23.4 76 3.2 SSW 17 20 9 11 1010.2 1010.0 1.6
19/03:30pm 29.7 33.4 23.2 68 4.5 S 9 17 5 9 1010.0 1009.8 1.6
19/03:00pm 29.3 32.0 22.8 68 4.4 SSW 13 19 7 10 1010.3 1010.1 1.6
19/02:30pm 29.2 33.4 23.2 70 4.1 SW 6 11 3 6 1010.5 1010.3 1.6
19/02:00pm 28.8 32.7 22.5 68 4.3 ENE 6 9 3 5 1010.9 1010.7 1.6
19/01:30pm 29.4 34.2 22.9 68 4.4 ESE 2 7 1 4 1011.3 1011.1 1.6
19/01:00pm 28.8 32.6 23.5 73 3.6 S 9 13 5 7 1011.6 1011.4 1.6
19/12:30pm 28.5 33.1 23.2 73 3.6 SW 4 7 2 4 1011.9 1011.7 1.6
19/12:00pm 27.9 31.4 22.8 74 3.5 SSW 9 13 5 7 1012.1 1011.9 1.6
19/11:30am 28.0 31.9 22.9 74 3.5 NNE 7 13 4 7 1012.1 1011.9 1.6
19/11:00am 27.8 32.7 24.4 82 2.4 N 6 9 3 5 1012.2 1012.0 1.6
19/10:30am 26.7 31.3 23.8 84 2.0 N 6 11 3 6 1012.4 1012.2 1.4
19/10:00am 28.2 31.7 22.9 73 3.6 N 9 17 5 9 1012.3 1012.1 0.0
19/09:30am 28.0 31.6 23.1 74 3.3 N 9 15 5 8 1012.4 1012.2 0.0
19/09:00am 27.7 30.6 23.1 76 3.1 N 13 20 7 11 1012.1 1011.9 0.0
19/08:30am 27.6 30.5 23.2 77 3.0 NNE 13 22 7 12 1012.0 1011.8 0.0
19/08:00am 27.3 31.0 23.3 79 2.7 N 9 17 5 9 1012.1 1011.9 0.0
19/07:30am 27.2 31.6 23.4 80 2.6 N 6 13 3 7 1011.6 1011.4 0.0
19/07:00am 26.8 31.2 23.5 82 2.3 N 6 11 3 6 1011.4 1011.2 0.0
19/06:30am 26.1 31.4 23.0 83 2.1 CALM 0 0 0 0 1011.0 1010.8 0.0
19/06:00am 25.6 30.7 22.7 84 2.0 CALM 0 0 0 0 1010.8 1010.6 0.0
19/05:30am 25.6 30.5 22.3 82 2.2 CALM 0 0 0 0 1010.7 1010.5 0.0
19/05:00am 25.5 29.2 22.2 82 2.2 E 6 9 3 5 1010.3 1010.1 0.0
19/04:30am 25.5 29.3 22.4 83 2.1 S 6 7 3 4 1010.4 1010.2 0.0
19/04:00am 25.8 29.4 22.1 80 2.5 SSE 6 7 3 4 1010.3 1010.1 0.0
19/03:30am 26.0 29.3 21.9 78 2.7 SE 7 13 4 7 1010.3 1010.1 0.0
19/03:00am 25.8 30.1 22.7 83 2.1 SE 4 9 2 5 1010.4 1010.2 0.0
19/02:30am 25.7 29.4 22.6 83 2.1 S 7 11 4 6 1011.1 1010.9 0.0
19/02:00am 25.8 29.2 22.7 83 2.1 SE 9 17 5 9 1011.1 1010.9 0.0
19/01:30am 25.7 29.7 22.8 84 2.0 E 6 9 3 5 1011.3 1011.1 0.0
19/01:00am 25.7 30.1 22.8 84 2.0 ENE 4 6 2 3 1011.9 1011.7 0.0
19/12:30am 25.8 29.5 22.5 82 2.2 ESE 7 9 4 5 1012.1 1011.9 0.0
19/12:00am 25.9 29.7 22.4 81 2.4 SE 6 9 3 5 1013.0 1012.8 0.0
 
Date/Time
EST
Temp
°C
App
Temp
°C
Dew
Point
Rel
Hum
%
Delta-T
°C
Wind Press
QNH
hPa
Press
MSL
hPa
Rain
since 9 am
mm
Dir
 
Spd
km/h
Gust
km/h
Spd
kts
Gust
kts
18/11:30pm 25.9 29.6 22.6 82 2.2 NNW 7 11 4 6 1012.5 1012.3 0.0
18/11:00pm 26.0 29.7 22.5 81 2.4 N 7 11 4 6 1012.3 1012.1 0.0
18/10:30pm 26.0 29.7 22.5 81 2.4 N 7 11 4 6 1012.4 1012.2 0.0
18/10:00pm 26.0 29.7 22.5 81 2.4 N 7 17 4 9 1012.2 1012.0 0.0
18/09:30pm 26.0 29.2 22.3 80 2.5 N 9 15 5 8 1012.0 1011.8 0.0
18/09:00pm 25.9 29.0 22.2 80 2.5 N 9 17 5 9 1011.7 1011.5 0.0
18/08:30pm 26.0 29.1 22.1 79 2.6 N 9 15 5 8 1011.6 1011.4 0.0
18/08:00pm 26.1 29.5 22.0 78 2.7 N 7 13 4 7 1011.3 1011.1 0.0
18/07:30pm 26.3 29.3 21.9 77 2.9 N 9 19 5 10 1011.1 1010.9 0.0
18/07:00pm 26.5 29.4 21.7 75 3.2 NNE 9 19 5 10 1010.9 1010.7 0.0
18/06:30pm 26.9 28.6 21.6 72 3.5 NNE 15 24 8 13 1010.5 1010.3 0.0
18/06:00pm 27.5 29.1 21.5 70 4.0 NNE 15 22 8 12 1010.1 1009.9 0.0
18/05:30pm 28.1 29.3 21.4 67 4.5 NNE 17 28 9 15 1009.6 1009.4 0.0
18/05:00pm 28.4 29.5 21.2 65 4.8 NNE 17 26 9 14 1009.1 1008.9 0.0
18/04:30pm 28.5 29.2 21.5 66 4.7 N 20 32 11 17 1008.9 1008.7 0.0
18/04:00pm 29.4 30.4 22.1 65 4.9 N 20 33 11 18 1008.5 1008.3 0.0
18/03:30pm 29.0 29.7 21.5 64 5.0 N 20 32 11 17 1008.8 1008.6 0.0
18/03:00pm 29.7 30.3 21.4 61 5.6 N 20 32 11 17 1009.3 1009.1 0.0
18/02:30pm 30.0 30.8 21.4 60 5.8 NNE 19 30 10 16 1009.9 1009.7 0.0
18/02:00pm 29.6 29.9 20.7 58 5.9 NNE 20 33 11 18 1010.4 1010.2 0.0
18/01:30pm 30.1 30.5 20.6 56 6.3 NNE 19 30 10 16 1010.5 1010.3 0.0
18/01:00pm 30.3 31.7 21.9 60 5.7 NNE 17 28 9 15 1010.7 1010.5 0.0
18/12:30pm 30.0 31.3 21.7 61 5.6 NNE 17 30 9 16 1010.9 1010.7 0.0
18/12:00pm 30.2 30.8 21.3 59 6.0 NNE 20 32 11 17 1011.1 1010.9 0.0
18/11:30am 30.0 30.8 21.7 61 5.6 NNE 20 33 11 18 1011.4 1011.2 0.0
18/11:00am 30.2 31.4 22.1 62 5.5 NNE 19 32 10 17 1011.8 1011.6 0.0
18/10:30am 30.3 31.5 22.2 62 5.5 NNE 19 33 10 18 1011.8 1011.6 0.0
18/10:00am 30.1 31.4 22.3 63 5.3 N 19 28 10 15 1012.0 1011.8 0.0
18/09:30am 30.3 32.1 21.9 60 5.7 N 15 28 8 15 1012.0 1011.8 0.0
18/09:00am 29.4 30.4 21.1 61 5.5 N 17 28 9 15 1012.1 1011.9 0.0
18/08:30am 29.1 30.9 21.8 64 4.9 NNW 15 26 8 14 1012.3 1012.1 0.0
18/08:00am 28.7 30.2 21.2 64 5.0 N 15 26 8 14 1012.5 1012.3 0.0
18/07:30am 28.1 30.4 22.1 70 4.0 NNE 13 24 7 13 1012.2 1012.0 0.0
18/07:00am 27.5 30.5 22.7 75 3.3 N 11 22 6 12 1011.8 1011.6 0.0
18/06:30am 26.4 30.2 22.7 80 2.5 N 7 13 4 7 1011.8 1011.6 0.0
18/06:00am 25.6 29.4 22.7 84 2.0 N 7 11 4 6 1011.3 1011.1 0.0
18/05:30am 24.1 28.0 22.5 91 1.1 N 6 9 3 5 1011.0 1010.8 0.0
18/05:00am 24.4 28.7 22.7 90 1.1 NE 4 7 2 4 1010.6 1010.4 0.0
18/04:30am 23.8 28.4 22.4 92 0.9 NNE 2 7 1 4 1010.3 1010.1 0.0
18/04:00am 24.0 28.1 22.3 90 1.1 NNE 4 7 2 4 1009.8 1009.6 0.0
18/03:30am 24.8 28.5 22.3 86 1.7 N 6 9 3 5 1009.5 1009.3 0.0
18/03:00am 24.9 28.7 22.4 86 1.7 N 6 9 3 5 1009.2 1009.0 0.0
18/02:30am 25.7 28.9 22.4 82 2.2 N 9 13 5 7 1009.0 1008.8 0.0
18/02:00am 26.1 29.0 22.4 80 2.5 N 11 20 6 11 1009.1 1008.9 0.0
18/01:30am 26.1 29.6 22.8 82 2.2 N 9 17 5 9 1009.0 1008.8 0.0
18/01:00am 26.0 29.5 22.9 83 2.1 NNE 9 17 5 9 1009.2 1009.0 0.0
18/12:30am 25.9 29.5 23.0 84 2.0 NNE 9 13 5 7 1009.5 1009.3 0.0
18/12:00am 25.6 29.2 23.1 86 1.7 NE 9 15 5 8 1009.8 1009.6 0.0
 
Date/Time
EST
Temp
°C
App
Temp
°C
Dew
Point
Rel
Hum
%
Delta-T
°C
Wind Press
QNH
hPa
Press
MSL
hPa
Rain
since 9 am
mm
Dir
 
Spd
km/h
Gust
km/h
Spd
kts
Gust
kts
17/11:30pm 25.9 30.0 23.2 85 1.8 NNE 7 11 4 6 1009.8 1009.6 0.0
17/11:00pm 25.6 29.7 23.3 87 1.6 NNE 7 11 4 6 1009.7 1009.5 0.0
17/10:30pm 25.5 29.7 23.2 87 1.6 NNE 6 9 3 5 1009.6 1009.4 0.0
17/10:00pm 25.5 29.6 23.2 87 1.6 NNE 7 13 4 7 1009.6 1009.4 0.0
17/09:30pm 25.6 29.8 23.1 86 1.7 NNE 6 11 3 6 1009.3 1009.1 0.0

Other Formats:

Comma delimited format used in spreadsheet applications
http://www.bom.gov.au/fwo/IDQ60801/IDQ60801.95370.axf

JavaScript Object Notation format (JSON) in row-major order
http://www.bom.gov.au/fwo/IDQ60801/IDQ60801.95370.json